createdAt,value
2019-02-11T00:00:46.020Z,80.37
2019-02-11T00:03:14.212Z,80.17
2019-02-11T00:05:42.432Z,79.99
2019-02-11T00:08:10.615Z,79.88
2019-02-11T00:10:38.838Z,79.70
2019-02-11T00:13:10.679Z,79.72
2019-02-11T00:15:36.932Z,79.61
2019-02-11T00:18:05.109Z,79.58
2019-02-11T00:20:33.307Z,79.25
2019-02-11T00:23:01.480Z,79.06
2019-02-11T00:25:29.666Z,79.28
2019-02-11T00:27:57.864Z,78.98
2019-02-11T00:30:26.051Z,79.11
2019-02-11T00:32:54.334Z,78.92
2019-02-11T00:35:22.594Z,78.55
2019-02-11T00:37:50.794Z,78.24
2019-02-11T00:40:18.979Z,77.44
2019-02-11T00:42:47.223Z,78.06
2019-02-11T00:45:15.407Z,77.72
2019-02-11T00:47:43.581Z,77.32
2019-02-11T00:50:11.858Z,76.94
2019-02-11T00:52:40.036Z,76.78
2019-02-11T00:55:08.226Z,77.16
2019-02-11T00:57:36.407Z,76.12
2019-02-11T01:00:07.632Z,76.31
2019-02-11T01:02:35.829Z,75.89
2019-02-11T01:05:05.462Z,76.08
2019-02-11T01:07:33.637Z,75.29
2019-02-11T01:10:01.879Z,75.84
2019-02-11T01:12:30.048Z,76.01
2019-02-11T01:14:58.202Z,74.97
2019-02-11T01:17:26.392Z,75.30
2019-02-11T01:19:54.569Z,75.03
2019-02-11T01:22:22.759Z,75.25
2019-02-11T01:24:51.019Z,74.74
2019-02-11T01:27:19.209Z,75.18
2019-02-11T01:29:47.619Z,74.72
2019-02-11T01:32:15.762Z,74.71
2019-02-11T01:34:43.948Z,74.70
2019-02-11T01:37:12.160Z,75.00
2019-02-11T01:39:40.360Z,74.94
2019-02-11T01:42:08.572Z,74.59
2019-02-11T01:44:36.776Z,74.40
2019-02-11T01:47:04.996Z,74.50
2019-02-11T01:49:33.212Z,74.15
2019-02-11T01:52:01.432Z,74.59
2019-02-11T01:54:29.606Z,74.50
2019-02-11T01:56:57.865Z,73.83
2019-02-11T02:01:53.278Z,73.95
2019-02-11T02:04:21.478Z,74.18
2019-02-11T02:06:49.710Z,74.36
2019-02-11T02:09:17.892Z,74.47
2019-02-11T02:11:46.097Z,74.63
2019-02-11T02:14:14.296Z,74.93
2019-02-11T02:16:42.479Z,75.24
2019-02-11T02:19:10.655Z,75.37
2019-02-11T02:21:38.851Z,75.73
2019-02-11T02:24:07.051Z,76.10
2019-02-11T02:26:35.231Z,76.51
2019-02-11T02:29:03.419Z,76.97
2019-02-11T02:31:31.599Z,77.12
2019-02-11T02:33:59.815Z,77.52
2019-02-11T02:36:27.990Z,77.93
2019-02-11T02:38:56.203Z,78.51
2019-02-11T02:41:24.386Z,78.89
2019-02-11T02:43:55.495Z,79.04
2019-02-11T02:46:22.503Z,78.91
2019-02-11T02:48:50.710Z,79.26
2019-02-11T02:51:18.879Z,79.29
2019-02-11T02:53:47.066Z,79.59
2019-02-11T02:56:15.247Z,79.60
2019-02-11T02:58:43.453Z,79.77
2019-02-11T03:01:11.652Z,79.91
2019-02-11T03:03:39.848Z,79.87
2019-02-11T03:06:08.055Z,79.92
2019-02-11T03:08:36.249Z,79.72
2019-02-11T03:11:04.432Z,79.81
2019-02-11T03:13:32.653Z,79.44
2019-02-11T03:16:00.811Z,79.50
2019-02-11T03:18:29.053Z,79.51
2019-02-11T03:20:57.229Z,79.32
2019-02-11T03:23:25.461Z,79.18
2019-02-11T03:25:53.637Z,79.01
2019-02-11T03:28:21.840Z,79.36
2019-02-11T03:30:50.057Z,79.35
2019-02-11T03:33:18.214Z,79.44
2019-02-11T03:35:46.428Z,79.42
2019-02-11T03:38:14.664Z,79.59
2019-02-11T03:40:42.845Z,79.67
2019-02-11T03:43:11.022Z,79.57
2019-02-11T03:45:39.226Z,79.58
2019-02-11T03:48:07.397Z,79.52
2019-02-11T03:50:35.580Z,79.56
2019-02-11T03:53:03.756Z,79.46
2019-02-11T03:55:31.949Z,79.45
2019-02-11T03:58:00.167Z,79.12
2019-02-11T04:00:28.359Z,79.05
2019-02-11T04:02:56.540Z,78.92
2019-02-11T04:05:24.755Z,78.82
2019-02-11T04:07:52.943Z,78.84
2019-02-11T04:10:21.124Z,79.01
2019-02-11T04:12:49.300Z,79.09
2019-02-11T04:15:17.491Z,79.21
2019-02-11T04:17:45.669Z,79.17
2019-02-11T04:20:13.889Z,79.15
2019-02-11T04:22:42.069Z,79.31
2019-02-11T04:25:10.283Z,79.09
2019-02-11T04:27:38.462Z,79.32
2019-02-11T04:30:09.191Z,79.18
2019-02-11T04:32:37.364Z,79.27
2019-02-11T04:35:06.225Z,79.24
2019-02-11T04:37:34.440Z,79.34
2019-02-11T04:40:02.655Z,79.39
2019-02-11T04:42:30.833Z,79.35
2019-02-11T04:44:59.010Z,79.11
2019-02-11T04:47:27.203Z,78.85
2019-02-11T04:49:55.396Z,78.64
2019-02-11T04:52:23.628Z,78.62
2019-02-11T04:54:51.813Z,78.49
2019-02-11T04:57:20.032Z,78.41
2019-02-11T04:59:48.233Z,78.22
2019-02-11T05:02:16.454Z,77.27
2019-02-11T05:04:44.644Z,77.18
2019-02-11T05:07:12.841Z,76.63
2019-02-11T05:09:41.021Z,76.37
2019-02-11T05:12:09.221Z,76.28
2019-02-11T05:14:43.464Z,75.58
2019-02-11T05:17:07.315Z,75.97
2019-02-11T05:19:35.504Z,75.19
2019-02-11T05:22:03.718Z,74.88
2019-02-11T05:24:31.901Z,74.67
2019-02-11T05:27:00.099Z,75.09
2019-02-11T05:29:28.304Z,75.10
2019-02-11T05:31:56.513Z,75.27
2019-02-11T05:34:24.703Z,75.34
2019-02-11T05:36:52.897Z,75.32
2019-02-11T05:39:21.085Z,75.13
2019-02-11T05:41:49.280Z,74.80
2019-02-11T05:44:17.456Z,74.61
2019-02-11T05:46:45.672Z,73.89
2019-02-11T05:49:13.937Z,73.95
2019-02-11T05:51:42.122Z,73.93
2019-02-11T05:54:10.327Z,73.73
2019-02-11T05:56:38.512Z,74.12
2019-02-11T05:59:06.708Z,73.95
2019-02-11T06:01:34.894Z,74.27
2019-02-11T06:04:03.083Z,74.18
2019-02-11T06:06:31.294Z,73.30
2019-02-11T06:08:59.489Z,73.53
2019-02-11T06:11:27.677Z,72.45
2019-02-11T06:13:55.904Z,72.28
2019-02-11T06:16:24.076Z,71.90
2019-02-11T06:18:52.294Z,71.82
2019-02-11T06:21:20.488Z,71.79
2019-02-11T06:23:48.671Z,71.46
2019-02-11T06:26:16.857Z,71.47
2019-02-11T06:28:45.073Z,71.14
2019-02-11T06:31:13.282Z,70.67
2019-02-11T06:33:41.498Z,71.27
2019-02-11T06:36:12.360Z,71.06
2019-02-11T06:38:39.612Z,71.03
2019-02-11T06:41:07.801Z,71.38
2019-02-11T06:43:36.000Z,71.24
2019-02-11T06:46:04.206Z,70.59
2019-02-11T06:48:32.413Z,73.15
2019-02-11T06:51:00.596Z,73.30
2019-02-11T06:53:28.817Z,75.15
2019-02-11T06:55:56.994Z,71.13
2019-02-11T06:58:25.189Z,69.82
2019-02-11T07:00:53.368Z,70.29
2019-02-11T07:03:21.582Z,70.39
2019-02-11T07:05:49.795Z,69.68
2019-02-11T07:08:17.983Z,69.00
2019-02-11T07:10:46.182Z,69.26
2019-02-11T07:13:14.381Z,69.43
2019-02-11T07:15:42.580Z,68.75
2019-02-11T07:18:10.763Z,69.29
2019-02-11T07:20:38.952Z,69.37
2019-02-11T07:23:07.137Z,68.88
2019-02-11T07:25:35.370Z,68.64
2019-02-11T07:28:03.576Z,68.60
2019-02-11T07:30:31.784Z,67.83
2019-02-11T07:32:59.988Z,68.49
2019-02-11T07:35:28.182Z,67.92
2019-02-11T07:37:56.376Z,67.63
2019-02-11T07:40:26.701Z,67.82
2019-02-11T07:42:56.521Z,67.54
2019-02-11T07:45:30.058Z,67.58
2019-02-11T07:47:56.262Z,68.03
2019-02-11T07:50:24.466Z,68.21
2019-02-11T07:52:52.653Z,68.34
2019-02-11T07:55:20.853Z,67.91
2019-02-11T07:57:49.061Z,67.75
2019-02-11T08:00:17.281Z,67.19
2019-02-11T08:02:45.464Z,66.89
2019-02-11T08:05:13.682Z,66.48
2019-02-11T08:07:41.880Z,65.97
2019-02-11T08:10:10.078Z,65.82
2019-02-11T08:12:38.278Z,65.85
2019-02-11T08:15:08.756Z,66.30
2019-02-11T08:17:36.954Z,66.62
2019-02-11T08:20:08.033Z,66.86
2019-02-11T08:22:36.245Z,66.47
2019-02-11T08:25:05.057Z,66.66
2019-02-11T08:27:33.275Z,71.48
2019-02-11T08:30:01.488Z,74.66
2019-02-11T08:32:29.701Z,73.00
2019-02-11T08:34:57.881Z,70.77
2019-02-11T08:37:26.072Z,68.84
2019-02-11T08:39:54.262Z,67.31
2019-02-11T08:42:22.452Z,67.15
2019-02-11T08:44:50.663Z,63.93
2019-02-11T08:47:19.466Z,64.23
2019-02-11T08:49:47.860Z,63.04
2019-02-11T08:52:16.074Z,62.76
2019-02-11T08:54:44.287Z,61.88
2019-02-11T08:57:12.505Z,61.31
2019-02-11T08:59:40.680Z,61.46
2019-02-11T09:02:08.883Z,60.50
2019-02-11T09:04:37.071Z,61.41
2019-02-11T09:07:05.307Z,60.98
2019-02-11T09:09:33.489Z,60.49
2019-02-11T09:12:01.687Z,59.46
2019-02-11T09:14:30.969Z,59.06
2019-02-11T09:16:59.383Z,59.77
2019-02-11T09:19:27.572Z,57.91
2019-02-11T09:21:55.780Z,58.34
2019-02-11T09:24:23.976Z,57.92
2019-02-11T09:26:52.166Z,57.54
2019-02-11T09:29:20.369Z,57.14
2019-02-11T09:31:48.578Z,57.16
2019-02-11T09:34:16.871Z,57.88
2019-02-11T09:36:45.052Z,56.91
2019-02-11T09:39:13.269Z,56.55
2019-02-11T09:41:41.486Z,56.40
2019-02-11T09:44:09.674Z,57.35
2019-02-11T09:46:37.881Z,57.94
2019-02-11T09:49:06.099Z,57.65
2019-02-11T09:51:36.929Z,57.77
2019-02-11T09:54:05.135Z,58.49
2019-02-11T09:56:33.327Z,59.20
2019-02-11T09:59:01.518Z,59.63
2019-02-11T10:01:29.702Z,59.89
2019-02-11T10:03:57.924Z,60.05
2019-02-11T10:06:26.121Z,60.54
2019-02-11T10:08:54.345Z,60.55
2019-02-11T10:11:22.527Z,60.86
2019-02-11T10:13:50.730Z,61.81
2019-02-11T10:16:18.910Z,61.68
2019-02-11T10:18:47.104Z,61.47
2019-02-11T10:21:15.284Z,61.70
2019-02-11T10:23:43.495Z,62.03
2019-02-11T10:26:11.674Z,62.21
2019-02-11T10:28:39.897Z,61.81
2019-02-11T10:31:08.078Z,61.76
2019-02-11T10:33:36.313Z,61.81
2019-02-11T10:36:04.504Z,61.60
2019-02-11T10:38:36.500Z,61.47
2019-02-11T10:41:02.631Z,61.32
2019-02-11T10:43:30.846Z,61.62
2019-02-11T10:45:59.052Z,61.81
2019-02-11T10:48:27.246Z,61.64
2019-02-11T10:50:55.450Z,61.81
2019-02-11T10:53:23.648Z,61.65
2019-02-11T10:55:51.841Z,60.94
2019-02-11T10:58:20.025Z,60.59
2019-02-11T11:00:48.246Z,60.39
2019-02-11T11:03:16.431Z,60.61
2019-02-11T11:05:44.625Z,60.91
2019-02-11T11:08:12.816Z,61.32
2019-02-11T11:10:41.011Z,60.98
2019-02-11T11:13:09.221Z,60.59
2019-02-11T11:15:37.423Z,60.54
2019-02-11T11:18:06.112Z,60.45
2019-02-11T11:20:34.293Z,59.35
2019-02-11T11:23:02.475Z,58.80
2019-02-11T11:25:30.702Z,57.91
2019-02-11T11:27:58.909Z,57.58
2019-02-11T11:30:27.106Z,56.98
2019-02-11T11:32:55.327Z,55.81
2019-02-11T11:35:23.504Z,55.56
2019-02-11T11:37:51.712Z,55.87
2019-02-11T11:40:21.363Z,54.66
2019-02-11T11:42:49.560Z,54.29
2019-02-11T11:45:19.006Z,54.78
2019-02-11T11:47:47.246Z,55.32
2019-02-11T11:50:16.277Z,55.23
2019-02-11T11:52:44.471Z,55.43
2019-02-11T11:55:14.733Z,55.81
2019-02-11T11:57:42.957Z,55.41
2019-02-11T12:00:17.281Z,55.45
2019-02-11T12:03:00.318Z,55.73
2019-02-11T12:05:15.958Z,56.16
2019-02-11T12:07:45.138Z,56.22
2019-02-11T12:10:13.369Z,56.37
2019-02-11T12:12:41.573Z,55.56
2019-02-11T12:15:11.995Z,56.60
2019-02-11T12:17:40.567Z,57.58
2019-02-11T12:20:11.277Z,58.31
2019-02-11T12:22:39.503Z,58.81
2019-02-11T12:25:10.799Z,58.60
2019-02-11T12:27:39.014Z,58.93
2019-02-11T12:30:15.612Z,58.64
2019-02-11T12:32:43.782Z,58.60
2019-02-11T12:35:13.439Z,57.20
2019-02-11T12:37:41.628Z,57.29
2019-02-11T12:40:11.260Z,57.82
2019-02-11T12:42:39.453Z,58.12
2019-02-11T12:45:19.816Z,57.76
2019-02-11T12:47:48.033Z,57.89
2019-02-11T12:50:17.563Z,56.99
2019-02-11T12:52:45.796Z,55.51
2019-02-11T12:55:15.424Z,55.12
2019-02-11T12:57:43.631Z,55.00
2019-02-11T13:00:24.283Z,53.90
2019-02-11T13:02:52.588Z,54.41
2019-02-11T13:05:23.651Z,54.90
2019-02-11T13:07:50.696Z,53.86
2019-02-11T13:10:22.110Z,53.70
2019-02-11T13:12:50.385Z,52.04
2019-02-11T13:15:52.840Z,51.96
2019-02-11T13:17:49.320Z,52.93
2019-02-11T13:20:18.272Z,53.38
2019-02-11T13:22:46.574Z,52.34
2019-02-11T13:25:15.890Z,52.44
2019-02-11T13:27:44.096Z,52.62
2019-02-11T13:30:17.873Z,51.86
2019-02-11T13:32:46.106Z,53.24
2019-02-11T13:35:14.305Z,51.88
2019-02-11T13:37:42.525Z,51.99
2019-02-11T13:40:11.069Z,52.34
2019-02-11T13:42:39.290Z,52.54
2019-02-11T13:45:16.212Z,53.89
2019-02-11T13:47:53.907Z,54.77
2019-02-11T13:50:17.178Z,54.87
2019-02-11T13:52:45.423Z,53.48
2019-02-11T13:55:13.630Z,53.49
2019-02-11T13:57:41.813Z,52.60
2019-02-11T14:00:17.565Z,52.81
2019-02-11T14:02:51.144Z,53.05
2019-02-11T14:05:19.351Z,52.90
2019-02-11T14:07:47.533Z,53.48
2019-02-11T14:10:15.738Z,53.92
2019-02-11T14:12:43.946Z,53.96
2019-02-11T14:15:12.177Z,52.66
2019-02-11T14:17:40.427Z,53.89
2019-02-11T14:20:26.181Z,53.41
2019-02-11T14:22:54.378Z,53.26
2019-02-11T14:25:40.910Z,52.60
2019-02-11T14:27:52.505Z,54.08
2019-02-11T14:30:23.389Z,52.42
2019-02-11T14:32:51.640Z,52.78
2019-02-11T14:35:20.739Z,52.33
2019-02-11T14:37:49.033Z,52.43
2019-02-11T14:40:17.215Z,53.95
2019-02-11T14:42:45.381Z,52.54
2019-02-11T14:45:21.084Z,51.76
2019-02-11T14:47:49.330Z,51.52
2019-02-11T14:50:17.572Z,50.63
2019-02-11T14:52:45.724Z,51.59
2019-02-11T14:55:13.906Z,51.48
2019-02-11T14:57:42.108Z,50.90
2019-02-11T15:00:19.632Z,51.40
2019-02-11T15:02:47.834Z,50.38
2019-02-11T15:05:16.265Z,50.92
2019-02-11T15:07:44.461Z,51.49
2019-02-11T15:10:13.113Z,51.44
2019-02-11T15:12:41.318Z,50.58
2019-02-11T15:15:10.847Z,52.14
2019-02-11T15:17:40.485Z,52.10
2019-02-11T15:20:14.271Z,51.13
2019-02-11T15:22:42.470Z,51.81
2019-02-11T15:25:12.597Z,50.78
2019-02-11T15:27:40.802Z,50.80
2019-02-11T15:30:11.989Z,50.53
2019-02-11T15:32:40.235Z,52.04
2019-02-11T15:35:09.104Z,50.74
2019-02-11T15:37:37.322Z,52.28
2019-02-11T15:40:08.775Z,52.08
2019-02-11T15:42:36.982Z,53.50
2019-02-11T15:45:08.602Z,52.00
2019-02-11T15:47:36.798Z,51.47
2019-02-11T15:50:08.220Z,52.90
2019-02-11T15:52:36.419Z,52.95
2019-02-11T15:55:07.436Z,51.61
2019-02-11T15:57:35.652Z,54.56
2019-02-11T16:00:06.401Z,54.18
2019-02-11T16:02:34.598Z,53.35
2019-02-11T16:05:02.943Z,53.56
2019-02-11T16:07:31.098Z,53.99
2019-02-11T16:09:59.281Z,53.84
2019-02-11T16:12:27.456Z,54.31
2019-02-11T16:14:55.648Z,54.58
2019-02-11T16:17:23.899Z,54.56
2019-02-11T16:19:52.130Z,54.14
2019-02-11T16:22:20.346Z,54.97
2019-02-11T16:24:48.538Z,54.83
2019-02-11T16:27:16.720Z,55.02
2019-02-11T16:29:44.920Z,56.60
2019-02-11T16:32:13.115Z,54.98
2019-02-11T16:34:42.774Z,54.74
2019-02-11T16:37:10.982Z,54.67
2019-02-11T16:39:39.175Z,55.06
2019-02-11T16:42:07.383Z,55.30
2019-02-11T16:44:35.621Z,55.70
2019-02-11T16:47:04.295Z,56.15
2019-02-11T16:49:32.495Z,56.45
2019-02-11T16:52:00.690Z,56.61
2019-02-11T16:54:28.908Z,56.37
2019-02-11T16:56:57.082Z,56.43
2019-02-11T16:59:25.285Z,56.79
2019-02-11T17:01:53.459Z,57.01
2019-02-11T17:04:21.658Z,57.22
2019-02-11T17:06:49.880Z,57.46
2019-02-11T17:09:18.115Z,57.57
2019-02-11T17:11:46.307Z,57.58
2019-02-11T17:14:14.561Z,57.47
2019-02-11T17:16:42.753Z,57.53
2019-02-11T17:19:10.947Z,57.51
2019-02-11T17:21:39.132Z,57.66
2019-02-11T17:24:07.328Z,57.40
2019-02-11T17:26:35.518Z,57.46
2019-02-11T17:29:03.710Z,57.11
2019-02-11T17:31:31.898Z,57.61
2019-02-11T17:34:00.094Z,57.55
2019-02-11T17:36:28.290Z,57.61
2019-02-11T17:38:56.477Z,57.97
2019-02-11T17:41:24.683Z,57.83
2019-02-11T17:43:52.862Z,57.94
2019-02-11T17:46:21.058Z,58.06
2019-02-11T17:48:49.239Z,58.07
2019-02-11T17:51:17.482Z,58.03
2019-02-11T17:53:45.673Z,57.96
2019-02-11T17:56:13.868Z,58.05
2019-02-11T17:58:42.052Z,57.95
2019-02-11T18:01:10.256Z,58.12
2019-02-11T18:03:39.725Z,58.12
2019-02-11T18:06:07.834Z,57.98
2019-02-11T18:08:36.045Z,57.92
2019-02-11T18:11:04.265Z,58.18
2019-02-11T18:13:36.087Z,58.22
2019-02-11T18:16:04.029Z,58.43
2019-02-11T18:18:32.212Z,58.96
2019-02-11T18:21:00.424Z,59.10
2019-02-11T18:23:28.609Z,59.59
2019-02-11T18:25:56.827Z,60.37
2019-02-11T18:28:25.014Z,60.76
2019-02-11T18:30:53.216Z,61.54
2019-02-11T18:33:21.396Z,61.86
2019-02-11T18:35:49.587Z,62.40
2019-02-11T18:38:17.769Z,62.62
2019-02-11T18:40:45.992Z,62.52
2019-02-11T18:43:14.206Z,62.96
2019-02-11T18:45:42.394Z,63.15
2019-02-11T18:48:10.587Z,63.45
2019-02-11T18:50:38.775Z,63.62
2019-02-11T18:53:06.963Z,64.14
2019-02-11T18:55:35.165Z,64.08
2019-02-11T18:58:03.373Z,64.59
2019-02-11T19:00:31.536Z,65.15
2019-02-11T19:02:59.774Z,64.83
2019-02-11T19:05:27.963Z,64.87
2019-02-11T19:07:56.158Z,64.88
2019-02-11T19:10:24.345Z,64.88
2019-02-11T19:12:52.562Z,64.97
2019-02-11T19:15:20.751Z,65.14
2019-02-11T19:17:48.942Z,64.99
2019-02-11T19:20:17.662Z,65.04
2019-02-11T19:22:45.863Z,65.14
2019-02-11T19:25:14.044Z,65.32
2019-02-11T19:27:42.262Z,65.35
2019-02-11T19:30:13.552Z,65.24
2019-02-11T19:32:41.750Z,65.17
2019-02-11T19:35:09.935Z,65.31
2019-02-11T19:37:38.141Z,65.56
2019-02-11T19:40:09.724Z,65.71
2019-02-11T19:42:37.988Z,65.82
2019-02-11T19:45:09.575Z,65.92
2019-02-11T19:47:37.784Z,65.98
2019-02-11T19:50:09.186Z,65.93
2019-02-11T19:52:37.381Z,65.80
2019-02-11T19:55:08.113Z,66.00
2019-02-11T19:57:36.347Z,66.21
2019-02-11T20:00:07.202Z,65.97
2019-02-11T20:02:35.398Z,66.12
2019-02-11T20:05:03.852Z,66.41
2019-02-11T20:07:32.080Z,66.65
2019-02-11T20:10:00.327Z,67.10
2019-02-11T20:12:28.471Z,66.78
2019-02-11T20:14:56.650Z,66.81
2019-02-11T20:17:24.843Z,66.91
2019-02-11T20:20:00.209Z,67.12
2019-02-11T20:22:22.940Z,67.18
2019-02-11T20:24:51.177Z,67.13
2019-02-11T20:27:19.362Z,67.15
2019-02-11T20:29:47.547Z,67.15
2019-02-11T20:32:15.742Z,67.15
2019-02-11T20:34:43.933Z,67.36
2019-02-11T20:37:12.146Z,67.75
2019-02-11T20:39:42.052Z,68.03
2019-02-11T20:42:10.354Z,67.98
2019-02-11T20:44:38.610Z,68.01
2019-02-11T20:47:06.797Z,67.81
2019-02-11T20:49:34.992Z,67.87
2019-02-11T20:52:03.173Z,68.27
2019-02-11T20:54:31.378Z,68.21
2019-02-11T20:56:59.584Z,68.48
2019-02-11T20:59:27.808Z,68.51
2019-02-11T21:01:55.967Z,68.62
2019-02-11T21:04:24.164Z,68.62
2019-02-11T21:06:52.414Z,68.77
2019-02-11T21:09:20.610Z,68.98
2019-02-11T21:11:48.795Z,69.28
2019-02-11T21:14:16.992Z,69.42
2019-02-11T21:16:45.175Z,69.47
2019-02-11T21:19:13.371Z,69.66
2019-02-11T21:21:41.583Z,69.73
2019-02-11T21:24:09.783Z,69.85
2019-02-11T21:26:37.966Z,69.83
2019-02-11T21:29:06.157Z,69.94
2019-02-11T21:31:34.360Z,70.24
2019-02-11T21:34:02.533Z,70.17
2019-02-11T21:36:30.987Z,70.38
2019-02-11T21:38:59.253Z,70.56
2019-02-11T21:41:27.458Z,70.40
2019-02-11T21:43:55.679Z,70.36
2019-02-11T21:46:23.861Z,70.40
2019-02-11T21:48:52.092Z,70.55
2019-02-11T21:51:20.238Z,70.62
2019-02-11T21:53:48.439Z,70.75
2019-02-11T21:56:17.691Z,70.71
2019-02-11T21:58:45.920Z,70.90
2019-02-11T22:01:14.295Z,70.95
2019-02-11T22:03:42.486Z,70.75
2019-02-11T22:06:10.668Z,70.69
2019-02-11T22:08:38.890Z,70.65
2019-02-11T22:11:07.070Z,70.55
2019-02-11T22:13:35.274Z,70.36
2019-02-11T22:16:03.463Z,70.44
2019-02-11T22:18:31.675Z,70.41
2019-02-11T22:20:59.883Z,70.44
2019-02-11T22:23:28.083Z,70.56
2019-02-11T22:25:56.265Z,70.43
2019-02-11T22:28:24.465Z,70.20
2019-02-11T22:30:52.645Z,70.18
2019-02-11T22:33:20.834Z,69.86
2019-02-11T22:35:49.043Z,69.92
2019-02-11T22:38:17.226Z,69.72
2019-02-11T22:40:45.423Z,69.73
2019-02-11T22:43:13.601Z,69.88
2019-02-11T22:45:41.793Z,69.70
2019-02-11T22:48:09.980Z,69.63
2019-02-11T22:50:43.228Z,69.56
2019-02-11T22:53:08.107Z,69.57
2019-02-11T22:55:36.337Z,69.66
2019-02-11T22:58:04.483Z,69.70
2019-02-11T23:00:45.624Z,69.65
2019-02-11T23:03:13.898Z,69.76
2019-02-11T23:05:42.088Z,69.96
2019-02-11T23:08:10.274Z,70.11
2019-02-11T23:10:38.487Z,70.28
2019-02-11T23:13:06.670Z,70.19
2019-02-11T23:15:34.860Z,69.98
2019-02-11T23:18:03.226Z,69.73
2019-02-11T23:20:31.424Z,69.72
2019-02-11T23:22:59.631Z,69.65
2019-02-11T23:25:27.831Z,69.78
2019-02-11T23:27:56.038Z,69.58
2019-02-11T23:30:24.227Z,69.54
2019-02-11T23:32:52.412Z,69.70
2019-02-11T23:35:20.657Z,69.83
2019-02-11T23:37:48.866Z,69.82
2019-02-11T23:40:17.064Z,69.85
2019-02-11T23:42:45.244Z,69.95
2019-02-11T23:45:13.440Z,69.90
2019-02-11T23:47:41.630Z,70.17
2019-02-11T23:50:11.092Z,70.29
2019-02-11T23:52:39.322Z,70.31
2019-02-11T23:55:10.652Z,70.32
2019-02-11T23:57:38.827Z,70.38
